»·PEaware :: BADGR13 KEND-KEND

BADGR13 :: KEND-KEND

FLIGHT INFORMATION

Flight Status: Arrived
Operator: Unknown
More flights by this operator :: More flights under this callsign
Pilot: Abraham G. (22221)
Aircraft: BEECH AIRCRAFT T-6A TEXAN
(TEX2)
More flights by this aircraft type
Origin: KEND Vance AFB
United States
Destination: KEND Vance AFB
United States
More flights between these airports :: More routes between these airports
Route: +DF NH
File this flight plan on PilotEdge
Remarks:
Altitude:
(Current/Filed)
0ft
Speed:
(Current/Filed)
0kts
Departed: 02-Oct-20 10:44 AM
Arrived: 02-Oct-20 11:40 AM
Distance/Time
Traveled:
0nm/0:56
Distance/Time
To Go:
Arrived

Flight Plot

Page will automatically refresh every two minutes.

Flight plan parsing failed; only flown route is shown


Map Options




Map Legend


Flown Route
Filed Route
Departure Airport
Arrival Airport
Navaid (VOR, NDB)
Fix

Horizontal Profiles

Position Reports

Time Latitude Longitude Heading Altitude Ground
Speed
02-Oct-20 10:40 36.347126 -97.909777 214 1279ft 6kts
02-Oct-20 10:41 36.346770 -97.910355 262 1279ft 0kts
02-Oct-20 10:42 36.346534 -97.910986 181 1279ft 8kts
02-Oct-20 10:43 36.309179 -97.908036 167 2451ft 186kts
02-Oct-20 10:44 36.258119 -97.891808 140 4980ft 225kts
02-Oct-20 10:45 36.292005 -97.845669 334 5000ft 265kts
02-Oct-20 10:46 36.355292 -97.887716 325 4916ft 249kts
02-Oct-20 10:47 36.418492 -97.913995 0 4996ft 250kts
02-Oct-20 10:48 36.487648 -97.902948 5 4973ft 251kts
02-Oct-20 10:49 36.556868 -97.893477 2 4995ft 250kts
02-Oct-20 10:50 36.626295 -97.890153 359 4976ft 250kts
02-Oct-20 10:51 36.695923 -97.886266 0 4964ft 250kts
02-Oct-20 10:53 36.738616 -97.921623 267 2409ft 190kts
02-Oct-20 10:54 36.738957 -97.999378 267 2231ft 235kts
02-Oct-20 10:55 36.767371 -98.070950 329 2322ft 248kts
02-Oct-20 10:56 36.797407 -98.117242 224 2315ft 225kts
02-Oct-20 10:57 36.735376 -98.123001 172 2318ft 199kts
02-Oct-20 10:58 36.755304 -98.110087 322 2057ft 129kts
02-Oct-20 10:59 36.737283 -98.123569 181 1324ft 127kts
02-Oct-20 11:00 36.739755 -98.109059 357 2293ft 163kts
02-Oct-20 11:01 36.749756 -98.122993 182 1332ft 98kts
02-Oct-20 11:02 36.717362 -98.113813 94 2318ft 174kts
02-Oct-20 11:03 36.759144 -98.109302 303 2216ft 132kts
02-Oct-20 11:04 36.738084 -98.123469 181 1224ft 124kts
02-Oct-20 11:05 36.706402 -98.095445 82 2236ft 217kts
02-Oct-20 11:06 36.715857 -98.020573 82 4919ft 230kts
02-Oct-20 11:06 36.723192 -97.949929 82 6135ft 262kts
02-Oct-20 11:08 36.733692 -97.858540 291 5885ft 226kts
02-Oct-20 11:09 36.726848 -97.792902 52 7446ft 224kts
02-Oct-20 11:10 36.739593 -97.824934 240 7764ft 230kts
02-Oct-20 11:11 36.735260 -97.752258 50 7682ft 267kts
02-Oct-20 11:11 36.754415 -97.684994 90 7955ft 268kts
02-Oct-20 11:12 36.742687 -97.636626 58 7615ft 263kts
02-Oct-20 11:14 36.725755 -97.660098 180 7973ft 198kts
02-Oct-20 11:14 36.718645 -97.620301 30 7768ft 188kts
02-Oct-20 11:15 36.738710 -97.653707 222 7554ft 182kts
02-Oct-20 11:16 36.676994 -97.661638 177 7031ft 264kts
02-Oct-20 11:17 36.600214 -97.662706 185 6425ft 285kts
02-Oct-20 11:18 36.528619 -97.670481 187 5956ft 249kts
02-Oct-20 11:19 36.459850 -97.675627 182 5958ft 248kts
02-Oct-20 11:20 36.391395 -97.676177 182 5975ft 248kts
02-Oct-20 11:21 36.322501 -97.678868 186 5963ft 246kts
02-Oct-20 11:22 36.254175 -97.679314 183 4335ft 249kts
02-Oct-20 11:23 36.190455 -97.684332 238 2963ft 212kts
02-Oct-20 11:24 36.191582 -97.757113 276 2979ft 214kts
02-Oct-20 11:25 36.243377 -97.790411 351 2959ft 227kts
02-Oct-20 11:26 36.306570 -97.791186 358 2432ft 218kts
02-Oct-20 11:27 36.364479 -97.791114 359 1267ft 178kts
02-Oct-20 11:28 36.404534 -97.791372 356 1935ft 195kts
02-Oct-20 11:29 36.377310 -97.825125 183 3057ft 245kts
02-Oct-20 11:30 36.311101 -97.837533 203 2999ft 223kts
02-Oct-20 11:31 36.256968 -97.831392 70 3286ft 235kts
02-Oct-20 11:32 36.318940 -97.845642 357 3001ft 242kts
02-Oct-20 11:33 36.384592 -97.846997 347 2923ft 234kts
02-Oct-20 11:34 36.434390 -97.874338 271 2255ft 210kts
02-Oct-20 11:35 36.400169 -97.908390 181 2281ft 192kts
02-Oct-20 11:36 36.344268 -97.910879 181 2304ft 197kts
02-Oct-20 11:37 36.359120 -97.904510 239 1930ft 104kts
02-Oct-20 11:38 36.338267 -97.910997 190 1287ft 44kts
02-Oct-20 11:39 36.333832 -97.910127 47 1291ft 0kts

Navigation Log

Ident Type
Flight plan parsing failed, navigation log unavailable